createdAt,value
2019-03-15T00:00:30.348Z,13.63
2019-03-15T00:05:23.756Z,17.70
2019-03-15T00:10:17.129Z,15.50
2019-03-15T00:15:10.565Z,16.73
2019-03-15T00:20:04.197Z,13.53
2019-03-15T00:24:57.636Z,9.70
2019-03-15T00:29:50.998Z,13.77
2019-03-15T00:34:44.452Z,19.03
2019-03-15T00:39:38.085Z,11.57
2019-03-15T00:44:31.806Z,13.47
2019-03-15T00:49:25.179Z,11.53
2019-03-15T00:54:18.831Z,12.67
2019-03-15T00:59:12.221Z,12.50
2019-03-15T01:04:05.592Z,13.67
2019-03-15T01:08:58.990Z,16.80
2019-03-15T01:13:52.652Z,16.23
2019-03-15T01:18:46.035Z,14.57
2019-03-15T01:23:39.720Z,13.77
2019-03-15T01:28:33.391Z,14.93
2019-03-15T01:33:26.855Z,15.67
2019-03-15T01:38:20.250Z,10.30
2019-03-15T01:43:13.857Z,15.90
2019-03-15T01:48:07.282Z,15.13
2019-03-15T01:53:00.927Z,10.73
2019-03-15T01:57:54.298Z,16.47
2019-03-15T02:02:48.497Z,19.20
2019-03-15T02:07:41.056Z,16.53
2019-03-15T02:12:34.431Z,14.70
2019-03-15T02:17:27.839Z,12.67
2019-03-15T02:22:21.513Z,16.73
2019-03-15T02:27:15.178Z,17.27
2019-03-15T02:32:08.633Z,16.60
2019-03-15T02:37:01.988Z,14.03
2019-03-15T02:41:55.644Z,14.43
2019-03-15T02:46:49.320Z,14.07
2019-03-15T02:51:42.681Z,19.00
2019-03-15T02:56:36.172Z,23.83
2019-03-15T03:01:29.548Z,17.77
2019-03-15T03:06:22.918Z,15.73
2019-03-15T03:11:16.294Z,13.20
2019-03-15T03:16:09.677Z,19.73
2019-03-15T03:21:03.553Z,15.50
2019-03-15T03:25:56.967Z,12.77
2019-03-15T03:30:50.366Z,14.73
2019-03-15T03:35:44.031Z,17.17
2019-03-15T03:40:37.419Z,17.93
2019-03-15T03:45:31.082Z,16.83
2019-03-15T03:50:24.463Z,19.67
2019-03-15T03:55:17.878Z,14.23
2019-03-15T04:00:11.584Z,18.80
2019-03-15T04:05:05.324Z,13.50
2019-03-15T04:09:58.705Z,16.00
2019-03-15T04:14:52.144Z,12.00
2019-03-15T04:19:45.599Z,18.43
2019-03-15T04:24:39.292Z,16.53
2019-03-15T04:29:32.662Z,17.80
2019-03-15T04:34:28.415Z,16.87
2019-03-15T04:39:19.514Z,12.73
2019-03-15T04:44:13.170Z,15.73
2019-03-15T04:49:06.536Z,10.43
2019-03-15T04:53:59.930Z,16.83
2019-03-15T04:58:53.310Z,10.10
2019-03-15T05:03:46.758Z,10.20
2019-03-15T05:08:40.150Z,15.00
2019-03-15T05:13:33.763Z,16.20
2019-03-15T05:18:27.119Z,10.10
2019-03-15T05:23:20.516Z,9.93
2019-03-15T05:28:14.199Z,13.78
2019-03-15T05:33:09.808Z,6.13
2019-03-15T05:38:03.726Z,8.73
2019-03-15T05:42:57.103Z,11.17
2019-03-15T05:47:50.472Z,11.20
2019-03-15T05:52:44.283Z,16.63
2019-03-15T05:57:37.659Z,12.50
2019-03-15T06:02:31.276Z,9.47
2019-03-15T06:07:24.959Z,11.67
2019-03-15T06:12:18.708Z,10.00
2019-03-15T06:17:12.121Z,14.03
2019-03-15T06:22:05.835Z,12.03
2019-03-15T06:26:59.417Z,11.17
2019-03-15T06:31:53.064Z,10.07
2019-03-15T06:36:46.748Z,9.03
2019-03-15T06:41:40.119Z,10.90
2019-03-15T06:46:33.807Z,6.30
2019-03-15T06:51:27.164Z,10.83
2019-03-15T06:56:20.580Z,6.50
2019-03-15T07:01:14.261Z,9.10
2019-03-15T07:06:07.938Z,7.30
2019-03-15T07:11:01.303Z,6.40
2019-03-15T07:15:54.734Z,6.03
2019-03-15T07:20:48.103Z,4.10
2019-03-15T07:25:41.757Z,5.57
2019-03-15T07:30:35.123Z,5.10
2019-03-15T07:35:28.486Z,4.27
2019-03-15T07:40:21.909Z,4.87
2019-03-15T07:45:15.586Z,3.43
2019-03-15T07:50:09.103Z,5.67
2019-03-15T07:55:02.648Z,5.13
2019-03-15T07:59:56.021Z,8.10
2019-03-15T08:04:49.400Z,7.30
2019-03-15T08:09:42.805Z,10.30
2019-03-15T08:14:36.450Z,8.77
2019-03-15T08:19:29.814Z,12.83
2019-03-15T08:24:23.241Z,10.90
2019-03-15T08:29:16.608Z,10.63
2019-03-15T08:34:10.311Z,15.13
2019-03-15T08:39:04.749Z,15.23
2019-03-15T08:43:58.280Z,17.93
2019-03-15T08:48:51.963Z,20.80
2019-03-15T08:53:45.653Z,20.67
2019-03-15T08:58:39.119Z,17.27
2019-03-15T09:03:34.286Z,21.07
2019-03-15T09:08:26.110Z,21.90
2019-03-15T09:13:19.827Z,20.73
2019-03-15T09:18:13.219Z,19.90
2019-03-15T09:23:06.597Z,18.00
2019-03-15T09:27:59.982Z,18.30
2019-03-15T09:32:53.619Z,11.90
2019-03-15T09:37:47.819Z,10.40
2019-03-15T09:42:40.351Z,9.23
2019-03-15T09:47:33.814Z,7.65
2019-03-15T09:52:27.437Z,12.03
2019-03-15T09:57:21.126Z,9.33
2019-03-15T10:02:14.799Z,11.00
2019-03-15T10:07:08.506Z,11.43
2019-03-15T10:12:01.855Z,12.63
2019-03-15T10:17:02.245Z,15.77
2019-03-15T10:21:56.415Z,15.87
2019-03-15T10:26:51.355Z,11.20
2019-03-15T10:31:45.022Z,10.17
2019-03-15T10:36:38.681Z,12.53
2019-03-15T10:41:32.455Z,12.35
2019-03-15T10:46:32.212Z,12.00
2019-03-15T10:51:26.546Z,7.07
2019-03-15T10:56:39.006Z,10.20
2019-03-15T11:01:38.077Z,6.40
2019-03-15T11:06:35.303Z,9.40
2019-03-15T11:11:29.093Z,9.27
2019-03-15T11:16:22.451Z,7.40
2019-03-15T11:21:17.316Z,7.47
2019-03-15T11:26:13.817Z,8.27
2019-03-15T11:31:04.152Z,10.77
2019-03-15T11:35:58.823Z,9.13
2019-03-15T11:40:52.196Z,8.57
2019-03-15T11:45:45.833Z,8.50
2019-03-15T11:50:39.199Z,10.17
2019-03-15T11:55:32.679Z,8.07
2019-03-15T12:00:26.019Z,6.50
2019-03-15T12:05:19.651Z,9.23
2019-03-15T12:10:13.142Z,8.87
2019-03-15T12:15:07.388Z,5.60
2019-03-15T12:20:00.750Z,8.07
2019-03-15T12:24:54.111Z,6.77
2019-03-15T12:29:47.482Z,6.23
2019-03-15T12:34:40.868Z,8.07
2019-03-15T12:39:34.267Z,8.20
2019-03-15T12:44:27.918Z,7.40
2019-03-15T12:49:21.277Z,6.57
2019-03-15T12:54:14.678Z,7.73
2019-03-15T12:59:08.042Z,8.57
2019-03-15T13:04:01.438Z,4.73
2019-03-15T13:08:54.810Z,4.03
2019-03-15T13:13:50.756Z,7.63
2019-03-15T13:18:41.550Z,5.47
2019-03-15T13:23:34.970Z,7.20
2019-03-15T13:28:28.344Z,7.97
2019-03-15T13:33:22.031Z,6.60
2019-03-15T13:38:15.401Z,5.97
2019-03-15T13:43:09.081Z,6.43
2019-03-15T13:48:03.259Z,7.63
2019-03-15T13:52:56.806Z,6.83
2019-03-15T13:57:50.180Z,5.30
2019-03-15T14:02:43.850Z,5.00
2019-03-15T14:07:37.235Z,6.47
2019-03-15T14:12:30.904Z,4.47
2019-03-15T14:17:24.295Z,7.37
2019-03-15T14:22:17.977Z,7.63
2019-03-15T14:27:11.335Z,7.03
2019-03-15T14:32:06.885Z,7.97
2019-03-15T14:36:58.126Z,6.77
2019-03-15T14:41:51.479Z,4.73
2019-03-15T14:46:44.843Z,11.33
2019-03-15T14:51:38.209Z,6.70
2019-03-15T14:56:31.613Z,7.23
2019-03-15T15:12:48.222Z,5.03
2019-03-15T15:17:41.611Z,5.87
2019-03-15T15:22:35.303Z,5.57
2019-03-15T15:27:28.676Z,4.33
2019-03-15T15:32:22.383Z,5.60
2019-03-15T15:37:15.757Z,7.63
2019-03-15T15:42:11.636Z,5.50
2019-03-15T15:47:05.428Z,5.13
2019-03-15T15:51:58.792Z,5.17
2019-03-15T15:56:52.331Z,6.27
2019-03-15T16:01:45.718Z,6.53
2019-03-15T16:06:39.375Z,3.37
2019-03-15T16:11:32.731Z,3.37
2019-03-15T16:16:26.122Z,5.17
2019-03-15T16:21:19.502Z,3.53
2019-03-15T16:26:12.892Z,5.40
2019-03-15T16:31:06.254Z,4.17
2019-03-15T16:35:59.715Z,3.90
2019-03-15T16:40:53.095Z,6.23
2019-03-15T16:45:46.742Z,7.97
2019-03-15T16:50:40.079Z,6.50
2019-03-15T16:55:33.498Z,4.77
2019-03-15T17:00:26.893Z,4.57
2019-03-15T17:05:20.561Z,4.83
2019-03-15T17:10:13.945Z,4.50
2019-03-15T17:15:08.367Z,4.57
2019-03-15T17:20:01.959Z,4.23
2019-03-15T17:24:55.599Z,4.77
2019-03-15T17:29:49.101Z,3.77
2019-03-15T17:34:42.723Z,3.90
2019-03-15T17:39:36.216Z,4.13
2019-03-15T17:44:29.727Z,4.87
2019-03-15T17:49:23.120Z,4.03
2019-03-15T17:54:16.783Z,4.87
2019-03-15T17:59:12.781Z,5.07
2019-03-15T18:04:03.552Z,4.00
2019-03-15T18:08:56.897Z,4.97
2019-03-15T18:13:50.403Z,3.70
2019-03-15T18:18:43.995Z,4.40
2019-03-15T18:23:37.385Z,4.47
2019-03-15T18:28:30.742Z,3.43
2019-03-15T18:33:24.137Z,4.50
2019-03-15T18:38:17.820Z,4.33
2019-03-15T18:43:11.510Z,4.10
2019-03-15T18:48:04.876Z,3.50
2019-03-15T18:52:58.293Z,4.13
2019-03-15T18:57:51.676Z,3.53
2019-03-15T19:02:45.348Z,4.50
2019-03-15T19:07:38.759Z,4.67
2019-03-15T19:12:32.385Z,4.53
2019-03-15T19:17:25.794Z,3.60
2019-03-15T19:22:19.161Z,5.33
2019-03-15T19:27:12.515Z,4.87
2019-03-15T19:32:05.881Z,3.30
2019-03-15T19:37:00.999Z,4.30
2019-03-15T19:41:52.644Z,4.67
2019-03-15T19:46:46.003Z,5.63
2019-03-15T19:51:39.356Z,3.27
2019-03-15T19:56:32.799Z,3.73
2019-03-15T20:01:28.869Z,4.60
2019-03-15T20:06:19.555Z,5.07
2019-03-15T20:11:12.912Z,4.60
2019-03-15T20:16:06.353Z,3.10
2019-03-15T20:20:59.699Z,2.87
2019-03-15T20:25:53.391Z,3.33
2019-03-15T20:30:51.949Z,4.37
2019-03-15T20:35:40.127Z,4.00
2019-03-15T20:40:33.494Z,3.57
2019-03-15T20:45:26.913Z,4.73
2019-03-15T20:50:20.584Z,3.80
2019-03-15T20:55:13.973Z,3.57
2019-03-15T21:00:08.580Z,3.10
2019-03-15T21:05:02.251Z,2.90
2019-03-15T21:09:55.611Z,4.13
2019-03-15T21:14:49.321Z,5.27
2019-03-15T21:19:42.690Z,4.27
2019-03-15T21:24:36.087Z,3.47
2019-03-15T21:29:29.437Z,2.70
2019-03-15T21:34:22.794Z,3.37
2019-03-15T21:39:16.203Z,6.10
2019-03-15T21:44:09.666Z,2.93
2019-03-15T21:49:03.187Z,3.77
2019-03-15T21:53:56.566Z,4.03
2019-03-15T21:58:50.028Z,2.97
2019-03-15T22:03:43.443Z,4.47
2019-03-15T22:08:37.131Z,8.80
2019-03-15T22:13:30.483Z,9.00
2019-03-15T22:18:23.909Z,8.17
2019-03-15T22:23:17.286Z,6.30
2019-03-15T22:28:10.653Z,6.10
2019-03-15T22:33:04.380Z,10.83
2019-03-15T22:37:57.743Z,8.37
2019-03-15T22:42:51.210Z,5.37
2019-03-15T22:47:44.562Z,10.93
2019-03-15T22:52:38.168Z,9.30
2019-03-15T22:57:31.835Z,9.17
2019-03-15T23:02:25.521Z,11.73
2019-03-15T23:07:18.959Z,9.27
2019-03-15T23:12:12.577Z,9.97
2019-03-15T23:17:06.062Z,12.23
2019-03-15T23:21:59.439Z,12.40
2019-03-15T23:26:52.858Z,11.37
2019-03-15T23:31:46.180Z,11.30
2019-03-15T23:36:39.554Z,10.60
2019-03-15T23:41:32.920Z,10.53
2019-03-15T23:46:26.529Z,9.23
2019-03-15T23:51:19.886Z,13.97
2019-03-15T23:56:13.295Z,10.87
